createdAt,value
2019-05-06T00:00:34.443Z,66.90
2019-05-06T00:03:05.029Z,67.00
2019-05-06T00:05:34.738Z,67.20
2019-05-06T00:08:04.284Z,67.50
2019-05-06T00:10:34.379Z,68.00
2019-05-06T00:13:04.726Z,68.10
2019-05-06T00:15:36.518Z,68.10
2019-05-06T00:18:06.211Z,67.40
2019-05-06T00:20:35.911Z,67.10
2019-05-06T00:23:11.103Z,66.00
2019-05-06T00:25:58.457Z,65.80
2019-05-06T00:28:33.978Z,65.90
2019-05-06T00:31:12.694Z,65.90
2019-05-06T00:33:37.118Z,65.60
2019-05-06T00:36:06.703Z,65.40
2019-05-06T00:38:37.911Z,65.00
2019-05-06T00:41:10.473Z,64.90
2019-05-06T00:43:40.179Z,64.60
2019-05-06T00:46:09.752Z,65.20
2019-05-06T00:48:39.346Z,65.60
2019-05-06T00:51:08.943Z,65.30
2019-05-06T00:53:40.284Z,64.30
2019-05-06T00:56:18.567Z,63.70
2019-05-06T00:58:48.120Z,63.90
2019-05-06T01:01:26.947Z,64.00
2019-05-06T01:03:49.019Z,63.90
2019-05-06T01:06:18.641Z,63.90
2019-05-06T01:08:48.167Z,64.10
2019-05-06T01:11:17.691Z,64.20
2019-05-06T01:13:55.952Z,64.50
2019-05-06T01:16:25.630Z,64.80
2019-05-06T01:18:55.199Z,64.90
2019-05-06T01:21:24.773Z,65.40
2019-05-06T01:23:54.604Z,65.70
2019-05-06T01:26:24.389Z,65.70
2019-05-06T01:28:54.731Z,65.00
2019-05-06T01:31:28.875Z,64.50
2019-05-06T01:33:55.722Z,64.60
2019-05-06T01:36:25.269Z,65.10
2019-05-06T01:39:13.888Z,65.80
2019-05-06T01:41:54.847Z,66.20
2019-05-06T01:44:24.514Z,66.40
2019-05-06T01:46:54.311Z,65.00
2019-05-06T01:49:24.931Z,64.20
2019-05-06T01:51:54.843Z,64.30
2019-05-06T01:54:24.950Z,64.40
2019-05-06T01:56:54.767Z,64.90
2019-05-06T01:59:24.736Z,65.00
2019-05-06T02:02:00.069Z,64.50
2019-05-06T02:04:25.679Z,64.10
2019-05-06T02:06:55.234Z,64.30
2019-05-06T02:09:24.912Z,64.00
2019-05-06T02:11:54.611Z,64.30
2019-05-06T02:14:24.753Z,65.60
2019-05-06T02:16:54.779Z,66.40
2019-05-06T02:19:24.382Z,67.20
2019-05-06T02:22:04.226Z,67.50
2019-05-06T02:24:38.775Z,67.70
2019-05-06T02:27:08.318Z,67.90
2019-05-06T02:29:43.671Z,67.40
2019-05-06T02:32:31.642Z,67.20
2019-05-06T02:35:17.583Z,66.60
2019-05-06T02:37:47.151Z,66.80
2019-05-06T02:40:24.854Z,67.70
2019-05-06T02:42:55.194Z,67.40
2019-05-06T02:45:24.961Z,67.30
2019-05-06T02:48:06.881Z,67.10
2019-05-06T02:50:54.037Z,67.50
2019-05-06T02:53:25.865Z,67.70
2019-05-06T02:55:55.593Z,67.90
2019-05-06T02:58:25.344Z,67.70
2019-05-06T03:00:55.959Z,67.30
2019-05-06T03:03:25.595Z,67.30
2019-05-06T03:05:55.219Z,67.70
2019-05-06T03:08:24.787Z,67.80
2019-05-06T03:10:54.451Z,68.10
2019-05-06T03:13:24.102Z,68.50
2019-05-06T03:15:54.777Z,68.30
2019-05-06T03:18:24.364Z,68.10
2019-05-06T03:21:04.642Z,67.80
2019-05-06T03:23:37.752Z,67.20
2019-05-06T03:26:07.302Z,66.60
2019-05-06T03:28:36.973Z,66.30
2019-05-06T03:31:07.993Z,65.70
2019-05-06T03:33:56.647Z,65.40
2019-05-06T03:36:23.641Z,65.50
2019-05-06T03:38:43.103Z,65.70
2019-05-06T03:41:13.961Z,65.70
2019-05-06T03:43:43.630Z,66.00
2019-05-06T03:46:23.211Z,66.20
2019-05-06T03:48:55.469Z,66.40
2019-05-06T03:51:25.049Z,66.60
2019-05-06T03:53:56.753Z,66.90
2019-05-06T03:56:26.115Z,67.10
2019-05-06T03:58:55.656Z,67.30
2019-05-06T04:01:25.209Z,67.40
2019-05-06T04:03:57.521Z,67.90
2019-05-06T04:06:27.184Z,67.90
2019-05-06T04:08:56.955Z,68.10
2019-05-06T04:11:26.563Z,68.20
2019-05-06T04:13:56.129Z,68.40
2019-05-06T04:16:44.828Z,68.20
2019-05-06T04:19:23.717Z,68.40
2019-05-06T04:22:19.580Z,68.30
2019-05-06T04:25:13.998Z,68.30
2019-05-06T04:27:53.781Z,68.20
2019-05-06T04:30:24.342Z,67.60
2019-05-06T04:32:54.031Z,67.80
2019-05-06T04:35:23.646Z,67.30
2019-05-06T04:37:54.293Z,67.10
2019-05-06T04:40:24.145Z,67.00
2019-05-06T04:42:53.786Z,66.90
2019-05-06T04:45:23.877Z,66.90
2019-05-06T04:47:54.690Z,66.90
2019-05-06T04:50:24.295Z,66.20
2019-05-06T04:53:04.954Z,66.00
2019-05-06T04:55:37.294Z,66.10
2019-05-06T04:58:06.979Z,66.50
2019-05-06T05:00:37.299Z,66.50
2019-05-06T05:03:06.863Z,66.30
2019-05-06T05:05:36.462Z,65.90
2019-05-06T05:08:06.105Z,65.50
2019-05-06T05:10:46.028Z,66.50
2019-05-06T05:13:24.408Z,65.90
2019-05-06T05:16:14.217Z,65.40
2019-05-06T05:18:47.531Z,65.60
2019-05-06T05:21:18.228Z,65.70
2019-05-06T05:23:47.806Z,65.70
2019-05-06T05:26:17.359Z,65.40
2019-05-06T05:28:46.943Z,65.10
2019-05-06T05:31:16.517Z,65.30
2019-05-06T05:33:46.075Z,65.30
2019-05-06T05:36:15.723Z,75.40
2019-05-06T05:38:45.313Z,74.20
2019-05-06T05:41:14.953Z,78.30
2019-05-06T05:43:49.053Z,70.40
2019-05-06T05:46:18.715Z,63.30
2019-05-06T05:49:02.885Z,60.70
2019-05-06T05:51:32.833Z,60.90
2019-05-06T05:54:02.533Z,61.40
2019-05-06T05:56:32.903Z,61.30
2019-05-06T05:59:03.268Z,61.70
2019-05-06T06:01:33.152Z,60.80
2019-05-06T06:04:03.277Z,60.10
2019-05-06T06:06:33.338Z,61.20
2019-05-06T06:09:05.059Z,61.30
2019-05-06T06:11:44.488Z,61.80
2019-05-06T06:14:48.081Z,62.00
2019-05-06T06:17:35.394Z,62.30
2019-05-06T06:20:24.528Z,62.30
2019-05-06T06:22:55.835Z,61.90
2019-05-06T06:25:26.634Z,62.20
2019-05-06T06:27:56.182Z,62.10
2019-05-06T06:30:33.140Z,61.60
2019-05-06T06:33:02.815Z,62.00
2019-05-06T06:35:46.856Z,61.40
2019-05-06T06:38:26.489Z,62.00
2019-05-06T06:40:57.094Z,61.80
2019-05-06T06:43:27.080Z,62.30
2019-05-06T06:45:56.640Z,62.30
2019-05-06T06:48:27.921Z,62.50
2019-05-06T06:50:57.758Z,62.50
2019-05-06T06:53:27.421Z,62.60
2019-05-06T06:56:16.039Z,62.40
2019-05-06T06:59:07.209Z,62.10
2019-05-06T07:01:52.966Z,61.50
2019-05-06T07:04:32.446Z,61.20
2019-05-06T07:07:03.266Z,60.70
2019-05-06T07:09:32.911Z,61.10
2019-05-06T07:12:03.456Z,60.20
2019-05-06T07:14:35.832Z,60.00
2019-05-06T07:17:04.499Z,59.30
2019-05-06T07:19:39.140Z,59.20
2019-05-06T07:22:08.671Z,59.30
2019-05-06T07:24:38.329Z,59.10
2019-05-06T07:27:14.024Z,59.10
2019-05-06T07:29:48.126Z,59.20
2019-05-06T07:32:14.801Z,58.40
2019-05-06T07:34:44.392Z,58.60
2019-05-06T07:37:15.015Z,58.00
2019-05-06T07:39:44.601Z,58.10
2019-05-06T07:42:22.868Z,57.70
2019-05-06T07:45:06.417Z,57.60
2019-05-06T07:47:38.938Z,56.10
2019-05-06T07:50:08.535Z,55.20
2019-05-06T07:52:38.136Z,54.40
2019-05-06T07:55:07.701Z,54.70
2019-05-06T07:57:38.379Z,54.80
2019-05-06T08:00:08.104Z,55.50
2019-05-06T08:02:37.747Z,54.80
2019-05-06T08:05:07.721Z,54.20
2019-05-06T08:07:37.436Z,54.30
2019-05-06T08:10:07.056Z,53.50
2019-05-06T08:12:36.622Z,53.20
2019-05-06T08:15:06.750Z,53.10
2019-05-06T08:17:42.230Z,50.40
2019-05-06T08:20:12.938Z,49.60
2019-05-06T08:22:48.196Z,50.90
2019-05-06T08:25:17.795Z,50.40
2019-05-06T08:27:49.499Z,49.70
2019-05-06T08:30:18.750Z,49.80
2019-05-06T08:32:48.480Z,50.30
2019-05-06T08:35:18.524Z,50.20
2019-05-06T08:37:48.945Z,49.70
2019-05-06T08:40:18.620Z,49.80
2019-05-06T08:42:48.245Z,49.80
2019-05-06T08:45:18.020Z,49.60
2019-05-06T08:47:48.683Z,48.30
2019-05-06T08:50:27.948Z,49.40
2019-05-06T08:53:28.659Z,48.30
2019-05-06T08:55:58.412Z,46.90
2019-05-06T08:58:46.845Z,47.30
2019-05-06T09:01:38.571Z,48.10
2019-05-06T09:04:12.805Z,46.10
2019-05-06T09:06:39.795Z,45.80
2019-05-06T09:09:09.874Z,45.80
2019-05-06T09:11:42.923Z,46.60
2019-05-06T09:14:13.651Z,46.40
2019-05-06T09:16:43.965Z,42.70
2019-05-06T09:19:13.787Z,42.90
2019-05-06T09:21:45.976Z,44.60
2019-05-06T09:24:14.699Z,44.60
2019-05-06T09:26:55.107Z,44.90
2019-05-06T09:29:32.546Z,45.30
2019-05-06T09:32:06.541Z,44.60
2019-05-06T09:34:43.124Z,45.40
2019-05-06T09:37:17.174Z,45.70
2019-05-06T09:39:46.988Z,44.50
2019-05-06T09:42:16.659Z,44.30
2019-05-06T09:44:50.046Z,43.30
2019-05-06T09:47:32.849Z,42.20
2019-05-06T09:50:03.050Z,41.30
2019-05-06T09:52:33.262Z,40.20
2019-05-06T09:55:12.751Z,39.30
2019-05-06T09:57:59.226Z,38.20
2019-05-06T10:00:32.953Z,39.30
2019-05-06T10:03:03.392Z,39.70
2019-05-06T10:05:33.220Z,40.70
2019-05-06T10:08:03.391Z,40.90
2019-05-06T10:10:35.387Z,41.70
2019-05-06T10:13:07.072Z,41.40
2019-05-06T10:15:36.763Z,40.50
2019-05-06T10:18:12.779Z,41.30
2019-05-06T10:20:43.169Z,41.10
2019-05-06T10:23:16.395Z,40.30
2019-05-06T10:25:46.089Z,40.60
2019-05-06T10:28:26.471Z,41.70
2019-05-06T10:30:57.550Z,41.70
2019-05-06T10:33:28.317Z,42.70
2019-05-06T10:36:02.625Z,42.90
2019-05-06T10:38:52.895Z,41.80
2019-05-06T10:41:27.352Z,41.40
2019-05-06T10:44:37.425Z,41.30
2019-05-06T10:47:07.070Z,38.90
2019-05-06T10:49:36.664Z,39.40
2019-05-06T10:52:30.234Z,40.00
2019-05-06T10:55:05.978Z,40.00
2019-05-06T10:57:42.935Z,39.20
2019-05-06T11:00:13.714Z,38.60
2019-05-06T11:03:01.748Z,39.30
2019-05-06T11:05:32.526Z,39.10
2019-05-06T11:08:02.345Z,38.90
2019-05-06T11:10:40.970Z,37.70
2019-05-06T11:13:06.118Z,38.10
2019-05-06T11:15:36.157Z,38.80
2019-05-06T11:18:05.809Z,39.30
2019-05-06T11:20:35.979Z,39.30
2019-05-06T11:23:06.693Z,40.30
2019-05-06T11:25:37.809Z,45.70
2019-05-06T11:28:26.719Z,41.30
2019-05-06T11:31:14.181Z,40.50
2019-05-06T11:33:52.563Z,40.80
2019-05-06T11:36:39.554Z,40.60
2019-05-06T11:39:14.570Z,40.50
2019-05-06T11:42:15.367Z,41.60
2019-05-06T11:44:57.875Z,42.10
2019-05-06T11:47:27.798Z,41.20
2019-05-06T11:49:58.689Z,39.30
2019-05-06T11:52:29.381Z,38.70
2019-05-06T11:54:58.428Z,38.90
2019-05-06T11:57:28.025Z,40.30
2019-05-06T11:59:57.674Z,39.20
2019-05-06T12:02:28.262Z,37.60
2019-05-06T12:04:57.904Z,37.80
2019-05-06T12:07:27.508Z,38.70
2019-05-06T12:09:57.232Z,39.00
2019-05-06T12:12:31.102Z,38.10
2019-05-06T12:15:03.083Z,38.00
2019-05-06T12:17:32.712Z,38.40
2019-05-06T12:20:03.860Z,38.60
2019-05-06T12:22:38.609Z,39.70
2019-05-06T12:25:11.729Z,38.80
2019-05-06T12:27:46.294Z,38.20
2019-05-06T12:30:18.695Z,37.80
2019-05-06T12:33:13.092Z,39.60
2019-05-06T12:35:52.237Z,40.40
2019-05-06T12:38:30.943Z,40.70
2019-05-06T12:41:00.257Z,39.50
2019-05-06T12:43:50.324Z,39.40
2019-05-06T12:46:26.749Z,38.80
2019-05-06T12:48:56.690Z,39.60
2019-05-06T12:51:27.172Z,39.80
2019-05-06T12:53:59.852Z,40.60
2019-05-06T12:56:30.150Z,41.20
2019-05-06T12:59:01.990Z,41.60
2019-05-06T13:01:34.078Z,41.20
2019-05-06T13:04:06.375Z,41.00
2019-05-06T13:06:36.194Z,40.70
2019-05-06T13:09:06.258Z,40.70
2019-05-06T13:11:36.114Z,40.40
2019-05-06T13:14:06.823Z,39.80
2019-05-06T13:16:36.716Z,40.10
2019-05-06T13:19:06.364Z,40.50
2019-05-06T13:21:42.425Z,41.00
2019-05-06T13:24:12.329Z,40.60
2019-05-06T13:26:45.123Z,41.30
2019-05-06T13:29:22.770Z,41.20
2019-05-06T13:31:54.203Z,40.10
2019-05-06T13:34:26.792Z,41.00
2019-05-06T13:36:59.621Z,41.70
2019-05-06T13:39:32.576Z,42.20
2019-05-06T13:42:01.705Z,41.30
2019-05-06T13:44:32.179Z,41.30
2019-05-06T13:47:02.982Z,41.00
2019-05-06T13:49:43.378Z,41.20
2019-05-06T13:52:14.285Z,41.10
2019-05-06T13:54:48.390Z,40.80
2019-05-06T13:57:19.866Z,40.20
2019-05-06T13:59:49.466Z,40.30
2019-05-06T14:02:38.709Z,39.70
2019-05-06T14:05:08.483Z,40.10
2019-05-06T14:07:43.036Z,40.10
2019-05-06T14:10:13.232Z,39.10
2019-05-06T14:12:43.048Z,38.90
2019-05-06T14:15:18.662Z,38.90
2019-05-06T14:17:49.223Z,39.40
2019-05-06T14:20:18.887Z,39.10
2019-05-06T14:22:48.479Z,38.80
2019-05-06T14:25:49.298Z,38.80
2019-05-06T14:28:25.359Z,39.00
2019-05-06T14:31:03.207Z,38.60
2019-05-06T14:33:33.062Z,38.50
2019-05-06T14:36:03.290Z,38.60
2019-05-06T14:38:34.169Z,39.00
2019-05-06T14:41:08.284Z,39.20
2019-05-06T14:43:38.404Z,39.80
2019-05-06T14:46:09.093Z,39.20
2019-05-06T14:48:38.716Z,39.20
2019-05-06T14:51:09.419Z,38.50
2019-05-06T14:53:40.265Z,37.60
2019-05-06T14:56:15.535Z,37.10
2019-05-06T14:59:03.588Z,37.00
2019-05-06T15:01:34.611Z,37.30
2019-05-06T15:04:05.547Z,38.20
2019-05-06T15:06:42.611Z,40.00
2019-05-06T15:09:14.439Z,41.80
2019-05-06T15:11:44.115Z,42.10
2019-05-06T15:14:15.762Z,41.50
2019-05-06T15:16:46.398Z,41.70
2019-05-06T15:19:16.682Z,41.90
2019-05-06T15:21:46.342Z,42.00
2019-05-06T15:24:20.970Z,41.70
2019-05-06T15:26:52.809Z,42.00
2019-05-06T15:29:23.894Z,41.90
2019-05-06T15:32:22.225Z,41.90
2019-05-06T15:35:12.821Z,42.40
2019-05-06T15:37:59.384Z,42.30
2019-05-06T15:40:36.627Z,42.20
2019-05-06T15:43:04.015Z,42.60
2019-05-06T15:45:34.903Z,43.10
2019-05-06T15:48:12.878Z,45.60
2019-05-06T15:50:45.983Z,45.10
2019-05-06T15:53:22.459Z,45.50
2019-05-06T15:55:55.330Z,44.70
2019-05-06T15:58:32.245Z,45.50
2019-05-06T16:01:36.237Z,42.80
2019-05-06T16:04:07.582Z,41.70
2019-05-06T16:06:44.483Z,40.70
2019-05-06T16:09:18.782Z,41.40
2019-05-06T16:11:48.552Z,43.50
2019-05-06T16:14:18.267Z,45.10
2019-05-06T16:16:48.096Z,45.40
2019-05-06T16:19:18.834Z,43.50
2019-05-06T16:21:48.588Z,42.40
2019-05-06T16:24:23.018Z,40.90
2019-05-06T16:26:52.800Z,40.90
2019-05-06T16:29:35.222Z,40.50
2019-05-06T16:32:06.075Z,39.90
2019-05-06T16:34:36.695Z,40.00
2019-05-06T16:37:06.279Z,40.70
2019-05-06T16:39:35.826Z,41.00
2019-05-06T16:42:05.502Z,41.80
2019-05-06T16:44:35.129Z,42.30
2019-05-06T16:47:04.759Z,44.10
2019-05-06T16:49:34.693Z,45.10
2019-05-06T16:52:05.340Z,46.00
2019-05-06T16:54:36.995Z,46.80
2019-05-06T16:57:13.792Z,47.10
2019-05-06T16:59:45.439Z,47.50
2019-05-06T17:02:19.863Z,48.30
2019-05-06T17:05:06.972Z,48.70
2019-05-06T17:07:45.070Z,49.00
2019-05-06T17:10:16.935Z,48.50
2019-05-06T17:12:46.543Z,48.90
2019-05-06T17:15:16.584Z,49.90
2019-05-06T17:17:47.269Z,50.50
2019-05-06T17:20:17.083Z,51.80
2019-05-06T17:22:46.735Z,53.20
2019-05-06T17:25:22.301Z,55.00
2019-05-06T17:27:52.685Z,56.10
2019-05-06T17:30:33.166Z,56.60
2019-05-06T17:33:22.544Z,56.70
2019-05-06T17:35:52.274Z,57.20
2019-05-06T17:38:26.332Z,57.70
2019-05-06T17:40:56.006Z,57.80
2019-05-06T17:43:25.622Z,57.90
2019-05-06T17:46:03.151Z,57.50
2019-05-06T17:48:54.268Z,57.30
2019-05-06T17:51:42.984Z,57.20
2019-05-06T17:54:12.668Z,57.20
2019-05-06T17:56:42.333Z,57.10
2019-05-06T17:59:12.004Z,57.10
2019-05-06T18:01:47.071Z,56.90
2019-05-06T18:04:16.778Z,57.00
2019-05-06T18:06:47.474Z,57.10
2019-05-06T18:09:18.207Z,57.10
2019-05-06T18:11:58.767Z,56.90
2019-05-06T18:14:26.802Z,56.80
2019-05-06T18:16:56.335Z,57.40
2019-05-06T18:19:25.905Z,57.70
2019-05-06T18:21:56.094Z,57.90
2019-05-06T18:24:26.848Z,57.70
2019-05-06T18:26:56.520Z,57.60
2019-05-06T18:29:28.143Z,57.30
2019-05-06T18:31:58.783Z,57.60
2019-05-06T18:34:28.424Z,57.40
2019-05-06T18:37:00.084Z,57.50
2019-05-06T18:39:33.752Z,57.30
2019-05-06T18:42:16.976Z,57.50
2019-05-06T18:44:37.775Z,57.80
2019-05-06T18:47:15.170Z,58.00
2019-05-06T18:49:44.820Z,58.30
2019-05-06T18:52:14.374Z,58.50
2019-05-06T18:54:43.971Z,57.90
2019-05-06T18:57:13.791Z,57.70
2019-05-06T18:59:44.737Z,57.50
2019-05-06T19:02:14.910Z,57.60
2019-05-06T19:05:03.513Z,58.20
2019-05-06T19:07:34.488Z,58.10
2019-05-06T19:10:12.783Z,57.90
2019-05-06T19:12:42.286Z,57.80
2019-05-06T19:15:12.635Z,58.20
2019-05-06T19:17:44.256Z,58.40
2019-05-06T19:20:13.797Z,58.90
2019-05-06T19:22:44.645Z,59.30
2019-05-06T19:25:16.336Z,59.20
2019-05-06T19:27:45.872Z,59.20
2019-05-06T19:30:15.809Z,59.30
2019-05-06T19:32:45.567Z,59.00
2019-05-06T19:35:15.097Z,59.00
2019-05-06T19:37:44.759Z,59.10
2019-05-06T19:40:14.472Z,59.30
2019-05-06T19:42:49.736Z,59.30
2019-05-06T19:45:15.470Z,59.50
2019-05-06T19:47:46.244Z,59.90
2019-05-06T19:50:15.838Z,59.70
2019-05-06T19:52:45.447Z,59.50
2019-05-06T19:55:15.218Z,59.70
2019-05-06T19:57:44.940Z,60.10
2019-05-06T20:00:14.607Z,60.60
2019-05-06T20:02:52.216Z,60.70
2019-05-06T20:05:41.147Z,60.70
2019-05-06T20:08:20.452Z,60.70
2019-05-06T20:11:05.960Z,60.80
2019-05-06T20:13:35.711Z,60.80
2019-05-06T20:16:07.541Z,61.00
2019-05-06T20:18:37.122Z,61.30
2019-05-06T20:21:11.748Z,60.90
2019-05-06T20:23:42.496Z,60.90
2019-05-06T20:26:16.488Z,61.10
2019-05-06T20:28:52.603Z,61.10
2019-05-06T20:31:28.100Z,60.90
2019-05-06T20:34:01.647Z,60.70
2019-05-06T20:36:33.028Z,60.80
2019-05-06T20:39:08.909Z,61.10
2019-05-06T20:41:45.868Z,61.10
2019-05-06T20:44:16.879Z,61.00
2019-05-06T20:46:54.091Z,60.90
2019-05-06T20:49:24.220Z,61.30
2019-05-06T20:51:56.439Z,60.50
2019-05-06T20:54:26.149Z,60.90
2019-05-06T20:56:56.327Z,61.00
2019-05-06T20:59:26.993Z,61.20
2019-05-06T21:02:03.059Z,61.50
2019-05-06T21:04:38.690Z,61.40
2019-05-06T21:07:12.364Z,61.30
2019-05-06T21:09:52.586Z,61.60
2019-05-06T21:12:23.337Z,61.40
2019-05-06T21:14:56.664Z,61.80
2019-05-06T21:17:26.337Z,62.10
2019-05-06T21:19:56.965Z,62.20
2019-05-06T21:22:27.556Z,62.50
2019-05-06T21:24:58.334Z,62.80
2019-05-06T21:27:28.322Z,62.90
2019-05-06T21:29:58.353Z,63.00
2019-05-06T21:32:34.255Z,63.30
2019-05-06T21:35:04.156Z,63.70
2019-05-06T21:37:34.851Z,64.10
2019-05-06T21:40:12.238Z,63.90
2019-05-06T21:43:03.017Z,63.70
2019-05-06T21:45:33.234Z,63.50
2019-05-06T21:51:26.242Z,63.60
2019-05-06T21:54:05.517Z,63.90
2019-05-06T21:56:35.344Z,63.80
2019-05-06T22:00:07.265Z,64.20
2019-05-06T22:02:53.111Z,63.80
2019-05-06T22:35:52.018Z,64.60
2019-05-06T22:38:22.726Z,64.30
2019-05-06T22:40:58.822Z,64.40
2019-05-06T22:43:28.816Z,64.20
2019-05-06T22:45:59.055Z,64.60
2019-05-06T22:48:28.797Z,64.80
2019-05-06T22:50:58.433Z,64.30
2019-05-06T22:53:28.605Z,64.40
2019-05-06T22:56:02.547Z,64.60
2019-05-06T22:58:34.382Z,65.00
2019-05-06T23:01:07.151Z,65.00
2019-05-06T23:03:37.336Z,65.20
2019-05-06T23:06:07.043Z,65.30
2019-05-06T23:08:43.390Z,65.50
2019-05-06T23:11:15.307Z,65.30
2019-05-06T23:13:44.654Z,65.60
2019-05-06T23:16:14.636Z,65.40
2019-05-06T23:19:16.365Z,65.30
2019-05-06T23:21:46.179Z,65.40
2019-05-06T23:24:16.101Z,65.10
2019-05-06T23:26:46.742Z,65.30
2019-05-06T23:29:17.006Z,64.90
2019-05-06T23:31:46.808Z,65.20
2019-05-06T23:34:16.568Z,65.60
2019-05-06T23:37:18.163Z,65.50
2019-05-06T23:40:24.129Z,64.90
2019-05-06T23:43:29.890Z,65.30
2019-05-06T23:46:35.672Z,66.40
2019-05-06T23:49:42.285Z,65.50
2019-05-06T23:52:48.741Z,65.40
2019-05-06T23:55:54.179Z,65.30
2019-05-06T23:58:47.875Z,65.40
